Overview Statistics Trail Chart Weather Telemetry Raw packets
 

This is the latest recevied weather packets stored in our database for station/object W8KVG. If no packets are shown the sender has not sent any weather packets the latest 10 day(s).

<< 66 67 68 69 70 >>
Time Temp. Humidity Pressure Rain* Wind** Luminosity Snow
1777438015 15° C 89% 1012 hPa 0 mm - 0 W/m² -
1777437712 15° C 89% 1012.1 hPa 0 mm - 0 W/m² -
1777437409 15° C 88% 1012.2 hPa 0 mm - 0 W/m² -
1777437105 15° C 88% 1012.2 hPa 0 mm - 0 W/m² -
1777436801 15° C 88% 1012.2 hPa 0 mm - 0 W/m² -
1777436498 15° C 87% 1012.1 hPa 0 mm - 0 W/m² -
1777436195 15.56° C 86% 1012.2 hPa 0 mm - 0 W/m² -
1777435892 15.56° C 85% 1012.3 hPa 0 mm - 0 W/m² -
1777435587 15.56° C 85% 1012.4 hPa 0 mm - 0 W/m² -
1777435283 15.56° C 84% 1012.5 hPa 0 mm - 0 W/m² -
1777434982 15.56° C 83% 1012.5 hPa 0 mm - 0 W/m² -
1777434679 16.11° C 82% 1012.7 hPa 0 mm - 0 W/m² -
1777434378 16.11° C 81% 1012.5 hPa 0 mm - 0 W/m² -
1777434077 16.11° C 80% 1012.5 hPa 0 mm - 0 W/m² -
1777433774 16.67° C 79% 1012.6 hPa 0 mm - 0 W/m² -
1777433469 16.67° C 78% 1012.6 hPa 0 mm - 0 W/m² -
1777433164 17.22° C 77% 1012.6 hPa 0 mm - 0 W/m² -
1777432862 17.22° C 76% 1012.5 hPa 0 mm - 0 W/m² -
1777432561 17.22° C 77% 1012.5 hPa 0 mm - 0 W/m² -
1777432259 17.22° C 76% 1012.4 hPa 0 mm - 0 W/m² -
1777431957 17.78° C 75% 1012.5 hPa 0 mm - 0 W/m² -
1777431654 17.78° C 75% 1012.3 hPa 0 mm - 0 W/m² -
1777431350 17.78° C 75% 1012.3 hPa 0 mm - 0 W/m² -
1777431046 17.22° C 76% 1012.1 hPa 0 mm - 0 W/m² -
1777430742 17.22° C 76% 1012.1 hPa 0 mm - 0 W/m² -

* Rain latest hour (hover to see other rain measurements)
** Current wind speed in m/s (hover to see current wind gust speed)